createdAt,value
2022-09-18T00:00:17.402Z,9.29
2022-09-18T00:02:43.956Z,9.23
2022-09-18T00:05:10.509Z,9.29
2022-09-18T00:07:36.983Z,9.31
2022-09-18T00:10:03.713Z,9.34
2022-09-18T00:12:30.161Z,9.37
2022-09-18T00:14:56.619Z,9.39
2022-09-18T00:17:23.083Z,9.42
2022-09-18T00:19:50.334Z,9.42
2022-09-18T00:22:16.807Z,9.44
2022-09-18T00:24:43.260Z,9.46
2022-09-18T00:27:09.699Z,9.44
2022-09-18T00:29:36.197Z,9.43
2022-09-18T00:32:02.663Z,9.44
2022-09-18T00:34:29.214Z,9.44
2022-09-18T00:36:58.648Z,9.43
2022-09-18T00:39:25.221Z,9.43
2022-09-18T00:41:51.712Z,9.44
2022-09-18T00:44:33.299Z,9.44
2022-09-18T00:47:26.180Z,9.47
2022-09-18T00:50:16.634Z,9.47
2022-09-18T00:52:48.489Z,9.50
2022-09-18T00:55:16.047Z,9.53
2022-09-18T00:57:48.072Z,9.57
2022-09-18T01:00:15.129Z,9.57
2022-09-18T01:02:45.669Z,9.61
2022-09-18T01:05:14.838Z,9.66
2022-09-18T01:08:18.889Z,9.66
2022-09-18T01:10:55.609Z,9.67
2022-09-18T01:13:59.259Z,9.66
2022-09-18T01:16:33.023Z,9.69
2022-09-18T01:19:18.193Z,9.67
2022-09-18T01:21:57.699Z,9.74
2022-09-18T01:24:47.508Z,9.74
2022-09-18T01:27:30.210Z,9.79
2022-09-18T01:30:09.437Z,9.80
2022-09-18T01:32:51.438Z,9.77
2022-09-18T01:35:40.462Z,9.73
2022-09-18T01:38:19.233Z,9.62
2022-09-18T01:41:06.277Z,9.71
2022-09-18T01:43:34.698Z,9.71
2022-09-18T01:46:07.255Z,9.74
2022-09-18T01:48:39.896Z,9.78
2022-09-18T01:51:17.106Z,9.78
2022-09-18T01:53:49.025Z,9.67
2022-09-18T01:56:50.065Z,9.74
2022-09-18T01:59:23.641Z,9.73
2022-09-18T02:02:05.016Z,9.73
2022-09-18T02:04:35.845Z,9.72
2022-09-18T02:07:21.081Z,9.68
2022-09-18T02:09:48.298Z,9.68
2022-09-18T02:12:18.898Z,9.59
2022-09-18T02:14:48.681Z,9.71
2022-09-18T02:17:58.496Z,9.68
2022-09-18T02:20:37.773Z,9.67
2022-09-18T02:23:06.609Z,9.68
2022-09-18T02:25:41.937Z,9.69
2022-09-18T02:28:10.047Z,9.67
2022-09-18T02:30:39.836Z,9.72
2022-09-18T02:33:33.154Z,9.72
2022-09-18T02:36:12.839Z,9.70
2022-09-18T02:38:53.361Z,9.71
2022-09-18T02:41:45.119Z,9.72
2022-09-18T02:44:25.245Z,9.68
2022-09-18T02:47:00.344Z,9.72
2022-09-18T02:49:39.624Z,9.71
2022-09-18T02:52:21.197Z,9.71
2022-09-18T02:54:58.085Z,9.69
2022-09-18T02:57:37.258Z,9.72
2022-09-18T03:00:08.379Z,9.73
2022-09-18T03:02:37.462Z,9.74
2022-09-18T03:05:05.375Z,9.69
2022-09-18T03:07:40.212Z,9.76
2022-09-18T03:10:07.346Z,9.74
2022-09-18T03:12:34.897Z,9.71
2022-09-18T03:15:04.446Z,9.68
2022-09-18T03:17:30.958Z,9.68
2022-09-18T03:19:57.437Z,9.66
2022-09-18T03:22:24.021Z,9.67
2022-09-18T03:24:50.527Z,9.67
2022-09-18T03:27:18.309Z,9.66
2022-09-18T03:29:45.474Z,9.65
2022-09-18T03:32:12.021Z,9.64
2022-09-18T03:34:45.366Z,9.61
2022-09-18T03:37:14.547Z,9.65
2022-09-18T03:39:41.091Z,9.63
2022-09-18T03:42:11.381Z,9.64
2022-09-18T03:44:38.110Z,9.67
2022-09-18T03:47:14.106Z,9.68
2022-09-18T03:49:40.589Z,9.72
2022-09-18T03:52:07.178Z,9.72
2022-09-18T03:54:41.195Z,9.72
2022-09-18T03:57:26.127Z,9.71
2022-09-18T04:00:14.341Z,9.71
2022-09-18T04:02:46.334Z,9.74
2022-09-18T04:05:51.495Z,9.73
2022-09-18T04:08:50.413Z,9.75
2022-09-18T04:11:26.389Z,9.74
2022-09-18T04:13:52.901Z,9.73
2022-09-18T04:16:19.475Z,9.68
2022-09-18T04:18:46.050Z,9.68
2022-09-18T04:21:12.515Z,9.67
2022-09-18T04:23:39.007Z,9.70
2022-09-18T04:26:09.463Z,9.73
2022-09-18T04:28:40.925Z,9.74
2022-09-18T04:31:09.453Z,9.74
2022-09-18T04:33:36.657Z,9.73
2022-09-18T04:36:07.038Z,9.76
2022-09-18T04:38:34.652Z,9.75
2022-09-18T04:41:01.325Z,9.75
2022-09-18T04:43:28.626Z,9.72
2022-09-18T04:45:55.575Z,9.76
2022-09-18T04:48:22.712Z,9.77
2022-09-18T04:50:50.595Z,9.79
2022-09-18T04:53:18.835Z,9.84
2022-09-18T04:55:47.426Z,9.81
2022-09-18T04:58:17.014Z,9.82
2022-09-18T05:00:45.184Z,9.85
2022-09-18T05:03:12.647Z,9.81
2022-09-18T05:05:41.109Z,9.80
2022-09-18T05:08:09.173Z,9.79
2022-09-18T05:10:35.705Z,9.80
2022-09-18T05:13:04.024Z,9.83
2022-09-18T05:15:31.154Z,9.87
2022-09-18T05:18:09.051Z,9.89
2022-09-18T05:20:37.958Z,9.87
2022-09-18T05:23:07.150Z,9.91
2022-09-18T05:25:35.705Z,9.89
2022-09-18T05:28:03.643Z,9.89
2022-09-18T05:30:41.914Z,9.86
2022-09-18T05:33:10.744Z,9.89
2022-09-18T05:35:39.975Z,9.89
2022-09-18T05:38:06.740Z,9.88
2022-09-18T05:40:36.351Z,9.91
2022-09-18T05:43:04.369Z,9.91
2022-09-18T05:45:33.427Z,9.93
2022-09-18T05:48:05.501Z,9.97
2022-09-18T05:50:34.735Z,9.98
2022-09-18T05:53:03.607Z,9.99
2022-09-18T05:55:38.979Z,9.98
2022-09-18T05:58:07.103Z,9.98
2022-09-18T06:00:35.471Z,9.98
2022-09-18T06:03:14.848Z,10.01
2022-09-18T06:05:41.949Z,9.90
2022-09-18T06:08:12.533Z,10.00
2022-09-18T06:10:40.456Z,10.00
2022-09-18T06:13:10.496Z,9.96
2022-09-18T06:15:46.425Z,9.99
2022-09-18T06:18:14.548Z,9.93
2022-09-18T06:20:42.616Z,9.98
2022-09-18T06:23:10.464Z,9.96
2022-09-18T06:26:01.862Z,9.97
2022-09-18T06:28:32.343Z,9.99
2022-09-18T06:31:02.129Z,10.00
2022-09-18T06:33:36.136Z,10.01
2022-09-18T06:36:08.193Z,9.88
2022-09-18T06:38:42.743Z,9.96
2022-09-18T06:41:09.519Z,10.24
2022-09-18T06:43:51.910Z,10.52
2022-09-18T06:46:30.163Z,10.74
2022-09-18T06:48:59.371Z,10.74
2022-09-18T06:51:25.826Z,10.67
2022-09-18T06:54:13.249Z,10.55
2022-09-18T06:56:41.493Z,10.53
2022-09-18T06:59:10.241Z,10.49
2022-09-18T07:01:37.428Z,10.42
2022-09-18T07:04:26.466Z,10.48
2022-09-18T07:06:53.054Z,10.69
2022-09-18T07:09:20.377Z,10.75
2022-09-18T07:12:04.941Z,10.75
2022-09-18T07:14:39.375Z,10.66
2022-09-18T07:17:14.191Z,10.62
2022-09-18T07:19:45.598Z,10.58
2022-09-18T07:22:13.843Z,10.53
2022-09-18T07:24:46.267Z,10.52
2022-09-18T07:27:13.290Z,10.46
2022-09-18T07:29:41.917Z,10.54
2022-09-18T07:32:09.739Z,10.81
2022-09-18T07:34:37.211Z,11.06
2022-09-18T07:37:03.956Z,11.07
2022-09-18T07:39:31.295Z,11.01
2022-09-18T07:42:33.157Z,10.88
2022-09-18T07:45:01.230Z,10.82
2022-09-18T07:47:29.850Z,10.76
2022-09-18T07:50:00.072Z,10.77
2022-09-18T07:52:26.706Z,10.74
2022-09-18T07:54:53.332Z,10.68
2022-09-18T07:57:28.334Z,10.74
2022-09-18T08:00:12.464Z,10.69
2022-09-18T08:02:42.239Z,10.75
2022-09-18T08:05:12.484Z,10.75
2022-09-18T08:07:44.557Z,10.69
2022-09-18T08:10:28.514Z,10.69
2022-09-18T08:13:08.887Z,10.71
2022-09-18T08:16:06.367Z,10.69
2022-09-18T08:18:51.137Z,10.69
2022-09-18T08:21:40.365Z,10.82
2022-09-18T08:24:10.066Z,10.87
2022-09-18T08:26:38.624Z,10.91
2022-09-18T08:29:06.871Z,10.93
2022-09-18T08:31:35.342Z,11.00
2022-09-18T08:34:04.631Z,11.00
2022-09-18T08:36:31.616Z,11.05
2022-09-18T08:39:07.625Z,11.08
2022-09-18T08:41:51.298Z,11.12
2022-09-18T08:44:27.454Z,11.16
2022-09-18T08:47:03.719Z,11.22
2022-09-18T08:49:44.931Z,11.29
2022-09-18T08:52:15.362Z,11.25
2022-09-18T08:54:48.278Z,11.42
2022-09-18T08:57:35.718Z,11.41
2022-09-18T09:00:18.312Z,11.43
2022-09-18T09:03:00.636Z,11.45
2022-09-18T09:05:34.305Z,11.53
2022-09-18T09:08:13.733Z,11.57
2022-09-18T09:10:55.436Z,11.75
2022-09-18T09:13:44.147Z,11.92
2022-09-18T09:16:39.893Z,12.09
2022-09-18T09:19:28.160Z,12.20
2022-09-18T09:22:07.880Z,12.23
2022-09-18T09:24:58.838Z,12.20
2022-09-18T09:27:33.099Z,12.21
2022-09-18T09:30:19.331Z,12.28
2022-09-18T09:33:16.347Z,12.28
2022-09-18T09:36:22.322Z,12.21
2022-09-18T09:39:13.352Z,12.23
2022-09-18T09:41:53.339Z,12.29
2022-09-18T09:44:24.091Z,12.20
2022-09-18T09:47:04.110Z,12.38
2022-09-18T09:49:47.931Z,12.47
2022-09-18T09:52:22.594Z,12.56
2022-09-18T09:54:55.334Z,12.48
2022-09-18T09:57:39.886Z,12.63
2022-09-18T10:00:15.095Z,12.65
2022-09-18T10:03:22.571Z,12.71
2022-09-18T10:06:21.889Z,12.63
2022-09-18T10:09:13.024Z,12.73
2022-09-18T10:11:43.138Z,12.68
2022-09-18T10:14:18.471Z,12.70
2022-09-18T10:16:48.773Z,12.67
2022-09-18T10:19:21.471Z,12.66
2022-09-18T10:21:53.066Z,12.60
2022-09-18T10:24:33.165Z,12.52
2022-09-18T10:27:10.427Z,12.45
2022-09-18T10:29:37.345Z,12.36
2022-09-18T10:32:07.914Z,12.24
2022-09-18T10:34:47.619Z,12.37
2022-09-18T10:37:29.993Z,12.34
2022-09-18T10:40:46.750Z,12.29
2022-09-18T10:43:20.314Z,12.20
2022-09-18T10:45:53.223Z,12.30
2022-09-18T10:48:45.933Z,12.32
2022-09-18T10:51:17.585Z,12.34
2022-09-18T10:54:01.543Z,12.36
2022-09-18T10:56:38.602Z,12.43
2022-09-18T10:59:27.014Z,12.46
2022-09-18T11:01:59.032Z,12.48
2022-09-18T11:04:27.497Z,12.49
2022-09-18T11:06:55.498Z,12.54
2022-09-18T11:09:36.984Z,12.45
2022-09-18T11:12:04.756Z,12.52
2022-09-18T11:14:50.494Z,12.52
2022-09-18T11:17:30.280Z,12.52
2022-09-18T11:19:59.356Z,12.55
2022-09-18T11:22:52.353Z,12.56
2022-09-18T11:25:31.345Z,12.64
2022-09-18T11:28:26.575Z,12.79
2022-09-18T11:31:04.162Z,12.89
2022-09-18T11:33:37.743Z,13.15
2022-09-18T11:36:08.139Z,13.29
2022-09-18T11:38:41.664Z,13.44
2022-09-18T11:41:11.027Z,13.55
2022-09-18T11:43:43.727Z,13.59
2022-09-18T11:46:46.079Z,13.72
2022-09-18T11:49:20.680Z,13.85
2022-09-18T11:51:58.118Z,13.93
2022-09-18T11:54:44.373Z,13.89
2022-09-18T11:57:22.775Z,13.81
2022-09-18T12:00:21.457Z,13.88
2022-09-18T12:03:11.355Z,13.86
2022-09-18T12:05:38.704Z,13.91
2022-09-18T12:08:30.418Z,13.90
2022-09-18T12:11:31.710Z,13.91
2022-09-18T12:14:08.671Z,14.00
2022-09-18T12:16:49.526Z,14.10
2022-09-18T12:19:21.645Z,14.22
2022-09-18T12:22:09.418Z,14.28
2022-09-18T12:24:35.966Z,13.83
2022-09-18T12:27:36.651Z,14.18
2022-09-18T12:30:09.991Z,14.14
2022-09-18T12:33:00.188Z,14.11
2022-09-18T12:35:54.605Z,14.05
2022-09-18T12:38:49.966Z,14.12
2022-09-18T12:41:31.678Z,14.25
2022-09-18T12:44:10.900Z,14.35
2022-09-18T12:46:49.342Z,14.45
2022-09-18T12:49:47.434Z,14.47
2022-09-18T12:52:55.200Z,14.58
2022-09-18T12:55:58.153Z,14.74
2022-09-18T12:59:05.939Z,14.97
2022-09-18T13:01:37.559Z,15.12
2022-09-18T13:04:20.534Z,15.16
2022-09-18T13:06:54.923Z,15.26
2022-09-18T13:09:28.393Z,15.35
2022-09-18T13:12:01.973Z,15.42
2022-09-18T13:14:38.778Z,15.38
2022-09-18T13:17:13.690Z,15.43
2022-09-18T13:19:44.674Z,15.45
2022-09-18T13:22:15.932Z,15.37
2022-09-18T13:24:43.805Z,15.35
2022-09-18T13:27:13.860Z,15.39
2022-09-18T13:29:52.343Z,15.31
2022-09-18T13:32:33.994Z,15.20
2022-09-18T13:35:12.295Z,15.21
2022-09-18T13:37:39.764Z,15.23
2022-09-18T13:40:27.084Z,15.30
2022-09-18T13:42:54.086Z,15.40
2022-09-18T13:45:24.606Z,15.36
2022-09-18T13:48:20.058Z,15.23
2022-09-18T13:50:56.754Z,15.24
2022-09-18T13:53:33.022Z,15.35
2022-09-18T13:55:59.916Z,15.39
2022-09-18T13:58:33.510Z,15.45
2022-09-18T14:01:01.041Z,15.41
2022-09-18T14:03:28.015Z,15.41
2022-09-18T14:05:55.126Z,15.42
2022-09-18T14:08:22.317Z,15.44
2022-09-18T14:11:05.377Z,15.40
2022-09-18T14:13:43.465Z,15.32
2022-09-18T14:16:30.346Z,15.26
2022-09-18T14:19:04.428Z,15.26
2022-09-18T14:21:38.266Z,15.34
2022-09-18T14:24:43.649Z,15.37
2022-09-18T14:27:41.227Z,15.31
2022-09-18T14:30:21.367Z,15.22
2022-09-18T14:33:19.394Z,15.12
2022-09-18T14:35:49.882Z,15.08
2022-09-18T14:38:31.572Z,15.04
2022-09-18T14:41:05.941Z,14.96
2022-09-18T14:43:32.556Z,14.99
2022-09-18T14:46:00.109Z,14.96
2022-09-18T14:48:29.910Z,14.83
2022-09-18T14:51:15.509Z,14.79
2022-09-18T14:53:44.364Z,14.73
2022-09-18T14:56:18.539Z,14.64
2022-09-18T14:58:47.853Z,14.61
2022-09-18T15:01:20.343Z,14.54
2022-09-18T15:03:50.309Z,14.54
2022-09-18T15:06:22.670Z,14.53
2022-09-18T15:08:53.005Z,14.51
2022-09-18T15:11:23.224Z,14.46
2022-09-18T15:13:52.326Z,14.46
2022-09-18T15:16:29.306Z,14.43
2022-09-18T15:18:57.430Z,14.36
2022-09-18T15:21:33.032Z,14.37
2022-09-18T15:24:02.863Z,14.40
2022-09-18T15:26:33.709Z,14.40
2022-09-18T15:29:02.308Z,14.33
2022-09-18T15:31:31.333Z,14.30
2022-09-18T15:34:15.481Z,14.32
2022-09-18T15:36:45.777Z,14.30
2022-09-18T15:39:28.287Z,14.19
2022-09-18T15:41:55.522Z,14.21
2022-09-18T15:45:05.066Z,14.20
2022-09-18T15:47:37.901Z,14.17
2022-09-18T15:50:13.558Z,14.08
2022-09-18T15:53:02.253Z,14.00
2022-09-18T15:55:52.201Z,14.00
2022-09-18T15:58:42.776Z,13.91
2022-09-18T16:01:19.405Z,13.90
2022-09-18T16:03:46.781Z,13.89
2022-09-18T16:06:26.869Z,13.80
2022-09-18T16:08:55.813Z,13.82
2022-09-18T16:11:52.161Z,13.72
2022-09-18T16:14:42.305Z,13.68
2022-09-18T16:17:33.794Z,13.68
2022-09-18T16:20:20.602Z,13.69
2022-09-18T16:22:48.395Z,13.65
2022-09-18T16:25:27.541Z,13.73
2022-09-18T16:27:56.489Z,13.71
2022-09-18T16:30:24.398Z,13.65
2022-09-18T16:33:15.187Z,13.46
2022-09-18T16:35:41.705Z,13.55
2022-09-18T16:38:09.381Z,13.56
2022-09-18T16:40:36.465Z,13.52
2022-09-18T16:43:03.054Z,13.48
2022-09-18T16:45:29.544Z,13.47
2022-09-18T16:48:00.465Z,13.44
2022-09-18T16:50:27.622Z,13.41
2022-09-18T16:52:54.852Z,13.28
2022-09-18T16:55:23.517Z,13.29
2022-09-18T16:57:52.214Z,13.24
2022-09-18T17:00:19.082Z,13.15
2022-09-18T17:02:45.641Z,13.19
2022-09-18T17:05:12.148Z,13.17
2022-09-18T17:07:40.489Z,13.15
2022-09-18T17:10:07.329Z,13.12
2022-09-18T17:12:33.796Z,13.11
2022-09-18T17:15:00.270Z,13.10
2022-09-18T17:17:26.773Z,12.97
2022-09-18T17:19:53.326Z,13.07
2022-09-18T17:22:22.578Z,13.04
2022-09-18T17:24:51.263Z,13.00
2022-09-18T17:27:18.980Z,12.98
2022-09-18T17:29:45.458Z,12.95
2022-09-18T17:32:12.501Z,12.94
2022-09-18T17:34:39.036Z,12.90
2022-09-18T17:37:05.555Z,12.90
2022-09-18T17:39:32.026Z,12.87
2022-09-18T17:41:59.483Z,12.88
2022-09-18T17:44:27.370Z,12.84
2022-09-18T17:46:54.210Z,12.80
2022-09-18T17:49:20.860Z,12.75
2022-09-18T17:51:47.913Z,12.74
2022-09-18T17:54:14.438Z,12.73
2022-09-18T17:56:40.978Z,12.74
2022-09-18T17:59:10.742Z,12.74
2022-09-18T18:01:40.573Z,12.70
2022-09-18T18:04:07.750Z,12.69
2022-09-18T18:06:36.862Z,12.65
2022-09-18T18:09:06.053Z,12.66
2022-09-18T18:11:33.499Z,12.49
2022-09-18T18:14:00.354Z,12.65
2022-09-18T18:16:30.534Z,12.62
2022-09-18T18:19:00.025Z,12.61
2022-09-18T18:21:27.464Z,12.60
2022-09-18T18:23:58.829Z,12.57
2022-09-18T18:26:27.901Z,12.58
2022-09-18T18:28:55.534Z,12.57
2022-09-18T18:31:25.374Z,12.55
2022-09-18T18:33:53.573Z,12.52
2022-09-18T18:36:28.769Z,12.53
2022-09-18T18:38:58.290Z,12.53
2022-09-18T18:41:26.378Z,12.37
2022-09-18T18:43:55.921Z,12.53
2022-09-18T18:46:24.247Z,12.54
2022-09-18T18:49:01.679Z,12.52
2022-09-18T18:51:34.560Z,12.49
2022-09-18T18:54:02.325Z,12.50
2022-09-18T18:56:30.891Z,12.48
2022-09-18T18:59:00.409Z,12.46
2022-09-18T19:01:28.062Z,12.48
2022-09-18T19:04:06.436Z,12.40
2022-09-18T19:06:36.228Z,12.44
2022-09-18T19:09:08.991Z,12.34
2022-09-18T19:11:42.829Z,12.44
2022-09-18T19:14:13.269Z,12.45
2022-09-18T19:16:40.340Z,12.43
2022-09-18T19:19:09.515Z,12.45
2022-09-18T19:21:37.892Z,12.42
2022-09-18T19:24:07.806Z,12.43
2022-09-18T19:26:35.022Z,12.43
2022-09-18T19:29:06.971Z,12.42
2022-09-18T19:31:35.378Z,12.44
2022-09-18T19:34:02.121Z,12.30
2022-09-18T19:36:30.097Z,12.47
2022-09-18T19:39:01.915Z,12.42
2022-09-18T19:41:38.962Z,12.47
2022-09-18T19:44:22.927Z,12.48
2022-09-18T19:46:50.126Z,12.46
2022-09-18T19:49:19.516Z,12.44
2022-09-18T19:51:46.644Z,12.52
2022-09-18T19:54:13.432Z,12.48
2022-09-18T19:56:46.441Z,12.50
2022-09-18T19:59:13.691Z,12.47
2022-09-18T20:01:40.633Z,12.50
2022-09-18T20:04:07.307Z,12.54
2022-09-18T20:06:34.398Z,12.52
2022-09-18T20:09:01.093Z,12.53
2022-09-18T20:11:27.614Z,12.52
2022-09-18T20:13:54.259Z,12.50
2022-09-18T20:16:21.217Z,12.52
2022-09-18T20:18:48.496Z,12.42
2022-09-18T20:21:17.850Z,12.52
2022-09-18T20:23:45.285Z,12.53
2022-09-18T20:26:14.566Z,12.53
2022-09-18T20:28:41.295Z,12.51
2022-09-18T20:31:10.285Z,12.50
2022-09-18T20:33:37.962Z,12.52
2022-09-18T20:36:06.530Z,12.53
2022-09-18T20:38:35.762Z,12.55
2022-09-18T20:41:14.829Z,12.48
2022-09-18T20:43:42.737Z,12.53
2022-09-18T20:46:14.189Z,12.52
2022-09-18T20:48:41.883Z,12.50
2022-09-18T20:51:10.698Z,12.53
2022-09-18T20:53:41.745Z,12.45
2022-09-18T20:56:10.264Z,12.39
2022-09-18T20:58:39.125Z,12.33
2022-09-18T21:01:08.343Z,12.29
2022-09-18T21:03:35.763Z,12.22
2022-09-18T21:06:21.375Z,12.09
2022-09-18T21:08:49.675Z,12.13
2022-09-18T21:11:19.129Z,11.96
2022-09-18T21:13:49.134Z,12.07
2022-09-18T21:16:20.893Z,12.06
2022-09-18T21:18:48.829Z,12.02
2022-09-18T21:21:16.957Z,12.00
2022-09-18T21:24:02.161Z,11.93
2022-09-18T21:26:33.004Z,11.93
2022-09-18T21:29:10.703Z,11.93
2022-09-18T21:31:42.441Z,11.92
2022-09-18T21:34:11.444Z,11.80
2022-09-18T21:36:43.303Z,11.86
2022-09-18T21:39:14.421Z,11.91
2022-09-18T21:41:46.150Z,11.90
2022-09-18T21:44:15.704Z,11.85
2022-09-18T21:46:43.191Z,11.82
2022-09-18T21:49:10.047Z,11.74
2022-09-18T21:51:41.647Z,11.12
2022-09-18T21:54:14.617Z,11.80
2022-09-18T21:56:41.751Z,11.71
2022-09-18T21:59:10.026Z,11.67
2022-09-18T22:01:38.178Z,11.58
2022-09-18T22:04:07.268Z,11.67
2022-09-18T22:06:36.477Z,11.63
2022-09-18T22:09:08.209Z,11.62
2022-09-18T22:11:36.914Z,11.65
2022-09-18T22:14:06.477Z,11.61
2022-09-18T22:16:33.874Z,11.53
2022-09-18T22:19:00.502Z,11.63
2022-09-18T22:21:29.854Z,11.64
2022-09-18T22:23:59.722Z,11.64
2022-09-18T22:26:27.389Z,11.54
2022-09-18T22:28:56.504Z,11.62
2022-09-18T22:31:24.547Z,11.59
2022-09-18T22:33:57.724Z,11.61
2022-09-18T22:36:25.410Z,11.58
2022-09-18T22:38:52.965Z,11.54
2022-09-18T22:41:19.951Z,11.52
2022-09-18T22:43:47.769Z,11.51
2022-09-18T22:46:16.543Z,11.52
2022-09-18T22:48:44.050Z,11.48
2022-09-18T22:51:13.342Z,11.42
2022-09-18T22:53:45.294Z,11.40
2022-09-18T22:56:13.779Z,11.37
2022-09-18T22:58:41.444Z,11.32
2022-09-18T23:01:09.300Z,11.28
2022-09-18T23:03:36.867Z,11.15
2022-09-18T23:06:04.783Z,11.06
2022-09-18T23:08:31.834Z,10.97
2022-09-18T23:11:07.738Z,10.80
2022-09-18T23:13:42.591Z,10.72
2022-09-18T23:16:12.983Z,10.68
2022-09-18T23:18:40.201Z,10.74
2022-09-18T23:21:08.863Z,10.74
2022-09-18T23:23:37.145Z,10.67
2022-09-18T23:26:09.617Z,10.69
2022-09-18T23:28:39.406Z,10.73
2022-09-18T23:31:10.280Z,10.72
2022-09-18T23:33:38.544Z,10.74
2022-09-18T23:36:16.477Z,10.73
2022-09-18T23:38:43.910Z,10.70
2022-09-18T23:41:12.442Z,10.74
2022-09-18T23:43:40.460Z,10.72
2022-09-18T23:46:08.902Z,10.72
2022-09-18T23:48:35.636Z,10.62
2022-09-18T23:51:03.240Z,10.68
2022-09-18T23:53:36.230Z,10.63
2022-09-18T23:56:09.935Z,10.62
2022-09-18T23:58:37.371Z,10.59
